Weather at Valley Asphalt Heliport

Public forecast

Using degrees Fahrenheit for public forecast. Weather courtesy of forecast.io.

Closest aviation weather report (METAR) to Valley Asphalt Heliport

Closest report is Butler Co Regional Airport - Hogan Field, 6.3 nm (11.7 km) NW. Retrieved 2021/06/13 10:53 UTC (55 minutes ago):

KHAO 131053Z AUTO 36005KT 6SM BR FEW075 22/21 A2989 RMK AO2 SLP117 T02170211

Closest aviation forecast (TAF) to Valley Asphalt Heliport

Closest forecast is Cincinnati Municipal Airport Lunken Field, 11.0 nm (20.3 km) S. Retrieved 2021/06/13 06:39 UTC (5 hours ago):

TAF KLUK 130536Z 1306/1406 00000KT P6SM VCTS BKN050CB FM130900 29003KT P6SM VCSH SCT050 TEMPO 1309/1312 5SM BR FM131400 32005KT P6SM VCTS SCT035CB FM131900 33007KT P6SM SCT040 FM140000 35008KT P6SM SCT250